sensor_id;sensor_type;location;lat;lon;timestamp;P1;durP1;ratioP1;P2;durP2;ratioP2
76131;SDS011;64877;50.994;13.650;2022-12-07T00:00:53;9.98;;;6.22;;
76131;SDS011;64877;50.994;13.650;2022-12-07T00:03:19;8.90;;;5.07;;
76131;SDS011;64877;50.994;13.650;2022-12-07T00:05:45;9.85;;;5.57;;
76131;SDS011;64877;50.994;13.650;2022-12-07T00:08:10;7.65;;;4.57;;
76131;SDS011;64877;50.994;13.650;2022-12-07T00:10:36;8.55;;;4.93;;
76131;SDS011;64877;50.994;13.650;2022-12-07T00:13:01;8.00;;;5.25;;
76131;SDS011;64877;50.994;13.650;2022-12-07T00:15:26;9.02;;;5.10;;
76131;SDS011;64877;50.994;13.650;2022-12-07T00:17:52;8.88;;;5.40;;
76131;SDS011;64877;50.994;13.650;2022-12-07T00:20:17;9.90;;;6.15;;
76131;SDS011;64877;50.994;13.650;2022-12-07T00:22:42;10.93;;;6.13;;
76131;SDS011;64877;50.994;13.650;2022-12-07T00:25:08;10.43;;;6.47;;
76131;SDS011;64877;50.994;13.650;2022-12-07T00:27:33;9.43;;;5.22;;
76131;SDS011;64877;50.994;13.650;2022-12-07T00:29:59;10.05;;;6.15;;
76131;SDS011;64877;50.994;13.650;2022-12-07T00:32:24;12.02;;;6.55;;
76131;SDS011;64877;50.994;13.650;2022-12-07T00:34:49;10.20;;;5.85;;
76131;SDS011;64877;50.994;13.650;2022-12-07T00:37:15;10.95;;;5.95;;
76131;SDS011;64877;50.994;13.650;2022-12-07T00:39:40;11.20;;;6.22;;
76131;SDS011;64877;50.994;13.650;2022-12-07T00:42:05;11.18;;;6.65;;
76131;SDS011;64877;50.994;13.650;2022-12-07T00:44:31;9.40;;;5.75;;
76131;SDS011;64877;50.994;13.650;2022-12-07T00:46:56;10.35;;;6.47;;
76131;SDS011;64877;50.994;13.650;2022-12-07T00:49:21;12.20;;;6.45;;
76131;SDS011;64877;50.994;13.650;2022-12-07T00:51:48;11.38;;;5.88;;
76131;SDS011;64877;50.994;13.650;2022-12-07T00:54:14;10.10;;;5.40;;
76131;SDS011;64877;50.994;13.650;2022-12-07T00:56:39;11.27;;;5.75;;
76131;SDS011;64877;50.994;13.650;2022-12-07T00:59:05;9.32;;;6.13;;
76131;SDS011;64877;50.994;13.650;2022-12-07T01:01:32;11.35;;;6.03;;
76131;SDS011;64877;50.994;13.650;2022-12-07T01:04:00;10.10;;;5.53;;
76131;SDS011;64877;50.994;13.650;2022-12-07T01:06:26;10.43;;;5.85;;
76131;SDS011;64877;50.994;13.650;2022-12-07T01:08:52;10.77;;;5.93;;
76131;SDS011;64877;50.994;13.650;2022-12-07T01:11:19;9.82;;;5.70;;
76131;SDS011;64877;50.994;13.650;2022-12-07T01:13:48;11.07;;;6.53;;
76131;SDS011;64877;50.994;13.650;2022-12-07T01:16:15;12.20;;;7.35;;
76131;SDS011;64877;50.994;13.650;2022-12-07T01:18:42;11.32;;;6.25;;
76131;SDS011;64877;50.994;13.650;2022-12-07T01:21:11;9.98;;;5.95;;
76131;SDS011;64877;50.994;13.650;2022-12-07T01:23:39;11.05;;;5.97;;
76131;SDS011;64877;50.994;13.650;2022-12-07T01:26:06;10.13;;;5.70;;
76131;SDS011;64877;50.994;13.650;2022-12-07T01:28:34;11.85;;;5.95;;
76131;SDS011;64877;50.994;13.650;2022-12-07T01:31:00;11.65;;;6.13;;
76131;SDS011;64877;50.994;13.650;2022-12-07T01:33:33;11.50;;;5.90;;
76131;SDS011;64877;50.994;13.650;2022-12-07T01:36:07;11.63;;;6.53;;
76131;SDS011;64877;50.994;13.650;2022-12-07T01:38:38;10.35;;;6.15;;
76131;SDS011;64877;50.994;13.650;2022-12-07T01:41:04;9.50;;;5.68;;
76131;SDS011;64877;50.994;13.650;2022-12-07T01:43:30;11.75;;;6.22;;
76131;SDS011;64877;50.994;13.650;2022-12-07T01:45:56;10.70;;;6.05;;
76131;SDS011;64877;50.994;13.650;2022-12-07T01:48:26;11.02;;;6.35;;
76131;SDS011;64877;50.994;13.650;2022-12-07T01:50:56;10.18;;;5.93;;
76131;SDS011;64877;50.994;13.650;2022-12-07T01:53:27;13.60;;;6.10;;
76131;SDS011;64877;50.994;13.650;2022-12-07T01:55:54;9.50;;;5.85;;
76131;SDS011;64877;50.994;13.650;2022-12-07T02:00:48;10.77;;;5.95;;
76131;SDS011;64877;50.994;13.650;2022-12-07T02:03:34;7.40;;;4.32;;
76131;SDS011;64877;50.994;13.650;2022-12-07T02:06:04;8.05;;;4.88;;
76131;SDS011;64877;50.994;13.650;2022-12-07T02:08:30;8.90;;;4.57;;
76131;SDS011;64877;50.994;13.650;2022-12-07T02:10:57;7.75;;;4.63;;
76131;SDS011;64877;50.994;13.650;2022-12-07T02:13:23;6.50;;;4.13;;
76131;SDS011;64877;50.994;13.650;2022-12-07T02:23:46;9.70;;;5.20;;
76131;SDS011;64877;50.994;13.650;2022-12-07T02:26:53;9.55;;;5.55;;
76131;SDS011;64877;50.994;13.650;2022-12-07T02:29:36;8.07;;;4.65;;
76131;SDS011;64877;50.994;13.650;2022-12-07T02:32:11;8.88;;;5.13;;
76131;SDS011;64877;50.994;13.650;2022-12-07T02:34:52;8.18;;;5.25;;
76131;SDS011;64877;50.994;13.650;2022-12-07T02:42:51;11.18;;;6.25;;
76131;SDS011;64877;50.994;13.650;2022-12-07T02:45:23;9.80;;;5.82;;
76131;SDS011;64877;50.994;13.650;2022-12-07T02:47:53;11.18;;;5.80;;
76131;SDS011;64877;50.994;13.650;2022-12-07T02:50:23;11.27;;;6.75;;
76131;SDS011;64877;50.994;13.650;2022-12-07T02:52:49;9.85;;;6.50;;
76131;SDS011;64877;50.994;13.650;2022-12-07T02:55:15;11.40;;;7.20;;
76131;SDS011;64877;50.994;13.650;2022-12-07T02:57:51;11.60;;;7.55;;
76131;SDS011;64877;50.994;13.650;2022-12-07T03:00:32;12.57;;;7.07;;
76131;SDS011;64877;50.994;13.650;2022-12-07T03:03:11;13.48;;;7.45;;
76131;SDS011;64877;50.994;13.650;2022-12-07T03:05:49;12.23;;;6.95;;
76131;SDS011;64877;50.994;13.650;2022-12-07T03:08:30;14.45;;;8.32;;
76131;SDS011;64877;50.994;13.650;2022-12-07T03:13:53;14.25;;;7.82;;
76131;SDS011;64877;50.994;13.650;2022-12-07T03:16:27;12.18;;;7.43;;
76131;SDS011;64877;50.994;13.650;2022-12-07T03:18:57;12.80;;;7.40;;
76131;SDS011;64877;50.994;13.650;2022-12-07T03:21:46;10.80;;;7.45;;
76131;SDS011;64877;50.994;13.650;2022-12-07T03:24:17;11.55;;;7.20;;
76131;SDS011;64877;50.994;13.650;2022-12-07T03:26:50;13.45;;;7.97;;
76131;SDS011;64877;50.994;13.650;2022-12-07T03:29:40;11.63;;;7.15;;
76131;SDS011;64877;50.994;13.650;2022-12-07T03:32:14;11.02;;;6.93;;
76131;SDS011;64877;50.994;13.650;2022-12-07T03:35:05;11.90;;;6.78;;
76131;SDS011;64877;50.994;13.650;2022-12-07T03:37:43;11.23;;;6.00;;
76131;SDS011;64877;50.994;13.650;2022-12-07T03:42:51;12.00;;;7.25;;
76131;SDS011;64877;50.994;13.650;2022-12-07T03:45:19;12.30;;;6.95;;
76131;SDS011;64877;50.994;13.650;2022-12-07T03:47:52;9.70;;;6.05;;
76131;SDS011;64877;50.994;13.650;2022-12-07T03:53:57;10.80;;;6.35;;
76131;SDS011;64877;50.994;13.650;2022-12-07T03:56:24;11.40;;;6.80;;
76131;SDS011;64877;50.994;13.650;2022-12-07T03:58:52;13.23;;;6.72;;
76131;SDS011;64877;50.994;13.650;2022-12-07T04:01:18;15.27;;;7.50;;
76131;SDS011;64877;50.994;13.650;2022-12-07T04:03:44;11.70;;;6.90;;
76131;SDS011;64877;50.994;13.650;2022-12-07T04:06:09;12.38;;;6.63;;
76131;SDS011;64877;50.994;13.650;2022-12-07T04:08:35;12.45;;;7.47;;
76131;SDS011;64877;50.994;13.650;2022-12-07T04:11:01;13.05;;;7.43;;
76131;SDS011;64877;50.994;13.650;2022-12-07T04:13:26;13.13;;;6.88;;
76131;SDS011;64877;50.994;13.650;2022-12-07T04:15:51;11.48;;;6.80;;
76131;SDS011;64877;50.994;13.650;2022-12-07T04:18:17;14.05;;;7.28;;
76131;SDS011;64877;50.994;13.650;2022-12-07T04:20:42;10.05;;;5.93;;
76131;SDS011;64877;50.994;13.650;2022-12-07T04:23:07;11.45;;;6.88;;
76131;SDS011;64877;50.994;13.650;2022-12-07T04:25:33;11.88;;;6.63;;
76131;SDS011;64877;50.994;13.650;2022-12-07T04:27:58;17.45;;;7.35;;
76131;SDS011;64877;50.994;13.650;2022-12-07T04:30:24;13.25;;;6.65;;
76131;SDS011;64877;50.994;13.650;2022-12-07T04:32:50;10.55;;;6.55;;
76131;SDS011;64877;50.994;13.650;2022-12-07T04:35:15;14.27;;;7.65;;
76131;SDS011;64877;50.994;13.650;2022-12-07T04:37:40;12.48;;;6.47;;
76131;SDS011;64877;50.994;13.650;2022-12-07T04:40:09;11.75;;;6.70;;
76131;SDS011;64877;50.994;13.650;2022-12-07T04:42:36;11.38;;;6.30;;
76131;SDS011;64877;50.994;13.650;2022-12-07T04:45:02;15.07;;;6.65;;
76131;SDS011;64877;50.994;13.650;2022-12-07T04:47:28;10.85;;;6.30;;
76131;SDS011;64877;50.994;13.650;2022-12-07T04:49:53;11.48;;;6.85;;
76131;SDS011;64877;50.994;13.650;2022-12-07T04:52:18;13.85;;;7.18;;
76131;SDS011;64877;50.994;13.650;2022-12-07T04:54:44;12.95;;;6.65;;
76131;SDS011;64877;50.994;13.650;2022-12-07T04:57:09;11.90;;;6.63;;
76131;SDS011;64877;50.994;13.650;2022-12-07T04:59:34;11.52;;;6.40;;
76131;SDS011;64877;50.994;13.650;2022-12-07T05:02:00;11.48;;;6.97;;
76131;SDS011;64877;50.994;13.650;2022-12-07T05:04:25;10.38;;;6.10;;
76131;SDS011;64877;50.994;13.650;2022-12-07T05:06:51;11.50;;;6.53;;
76131;SDS011;64877;50.994;13.650;2022-12-07T05:09:16;10.95;;;6.38;;
76131;SDS011;64877;50.994;13.650;2022-12-07T05:11:41;9.65;;;6.18;;
76131;SDS011;64877;50.994;13.650;2022-12-07T05:16:47;11.55;;;6.20;;
76131;SDS011;64877;50.994;13.650;2022-12-07T05:19:14;13.95;;;5.80;;
76131;SDS011;64877;50.994;13.650;2022-12-07T05:21:40;10.35;;;6.03;;
76131;SDS011;64877;50.994;13.650;2022-12-07T05:24:06;9.45;;;5.22;;
76131;SDS011;64877;50.994;13.650;2022-12-07T05:26:33;9.77;;;5.82;;
76131;SDS011;64877;50.994;13.650;2022-12-07T05:28:59;12.55;;;5.63;;
76131;SDS011;64877;50.994;13.650;2022-12-07T05:31:25;8.48;;;5.43;;
76131;SDS011;64877;50.994;13.650;2022-12-07T05:33:51;10.65;;;5.45;;
76131;SDS011;64877;50.994;13.650;2022-12-07T05:36:17;9.77;;;5.30;;
76131;SDS011;64877;50.994;13.650;2022-12-07T05:38:42;8.38;;;4.63;;
76131;SDS011;64877;50.994;13.650;2022-12-07T05:41:08;8.00;;;4.75;;
76131;SDS011;64877;50.994;13.650;2022-12-07T05:43:56;7.22;;;4.40;;
76131;SDS011;64877;50.994;13.650;2022-12-07T05:46:22;8.85;;;4.28;;
76131;SDS011;64877;50.994;13.650;2022-12-07T05:48:47;10.82;;;4.40;;
76131;SDS011;64877;50.994;13.650;2022-12-07T05:51:13;9.30;;;4.90;;
76131;SDS011;64877;50.994;13.650;2022-12-07T05:53:38;8.57;;;4.60;;
76131;SDS011;64877;50.994;13.650;2022-12-07T05:56:03;9.40;;;4.28;;
76131;SDS011;64877;50.994;13.650;2022-12-07T05:58:29;6.53;;;3.75;;
76131;SDS011;64877;50.994;13.650;2022-12-07T06:01:13;6.95;;;3.80;;
76131;SDS011;64877;50.994;13.650;2022-12-07T06:03:38;6.40;;;3.45;;
76131;SDS011;64877;50.994;13.650;2022-12-07T06:06:03;7.38;;;3.90;;
76131;SDS011;64877;50.994;13.650;2022-12-07T06:08:29;7.25;;;4.18;;
76131;SDS011;64877;50.994;13.650;2022-12-07T06:10:54;7.90;;;4.00;;
76131;SDS011;64877;50.994;13.650;2022-12-07T06:13:39;5.95;;;3.15;;
76131;SDS011;64877;50.994;13.650;2022-12-07T06:16:05;8.07;;;4.18;;
76131;SDS011;64877;50.994;13.650;2022-12-07T06:18:31;5.70;;;3.45;;
76131;SDS011;64877;50.994;13.650;2022-12-07T06:20:56;6.85;;;3.55;;
76131;SDS011;64877;50.994;13.650;2022-12-07T06:23:22;5.85;;;3.75;;
76131;SDS011;64877;50.994;13.650;2022-12-07T06:25:47;5.80;;;3.33;;
76131;SDS011;64877;50.994;13.650;2022-12-07T06:28:12;6.55;;;3.35;;
76131;SDS011;64877;50.994;13.650;2022-12-07T06:30:38;8.25;;;3.60;;
76131;SDS011;64877;50.994;13.650;2022-12-07T06:33:03;5.18;;;3.40;;
76131;SDS011;64877;50.994;13.650;2022-12-07T06:35:28;7.72;;;3.40;;
76131;SDS011;64877;50.994;13.650;2022-12-07T06:37:54;5.60;;;3.35;;
76131;SDS011;64877;50.994;13.650;2022-12-07T06:40:19;7.32;;;3.00;;
76131;SDS011;64877;50.994;13.650;2022-12-07T06:42:44;5.25;;;3.20;;
76131;SDS011;64877;50.994;13.650;2022-12-07T06:45:10;5.95;;;3.55;;
76131;SDS011;64877;50.994;13.650;2022-12-07T06:47:35;4.78;;;3.03;;
76131;SDS011;64877;50.994;13.650;2022-12-07T06:50:01;6.82;;;3.65;;
76131;SDS011;64877;50.994;13.650;2022-12-07T06:52:26;6.97;;;4.00;;
76131;SDS011;64877;50.994;13.650;2022-12-07T06:54:51;9.85;;;3.80;;
76131;SDS011;64877;50.994;13.650;2022-12-07T06:57:17;6.43;;;3.25;;
76131;SDS011;64877;50.994;13.650;2022-12-07T06:59:42;5.30;;;2.97;;
76131;SDS011;64877;50.994;13.650;2022-12-07T07:02:08;4.18;;;2.67;;
76131;SDS011;64877;50.994;13.650;2022-12-07T07:04:34;5.65;;;3.33;;
76131;SDS011;64877;50.994;13.650;2022-12-07T07:07:00;4.15;;;2.90;;
76131;SDS011;64877;50.994;13.650;2022-12-07T07:09:25;4.32;;;2.85;;
76131;SDS011;64877;50.994;13.650;2022-12-07T07:11:51;4.88;;;2.60;;
76131;SDS011;64877;50.994;13.650;2022-12-07T07:14:16;4.82;;;2.67;;
76131;SDS011;64877;50.994;13.650;2022-12-07T07:16:44;7.22;;;3.20;;
76131;SDS011;64877;50.994;13.650;2022-12-07T07:19:09;5.03;;;2.85;;
76131;SDS011;64877;50.994;13.650;2022-12-07T07:21:34;6.40;;;3.45;;
76131;SDS011;64877;50.994;13.650;2022-12-07T07:24:01;6.55;;;3.10;;
76131;SDS011;64877;50.994;13.650;2022-12-07T07:26:26;5.93;;;3.10;;
76131;SDS011;64877;50.994;13.650;2022-12-07T07:28:52;16.33;;;3.60;;
76131;SDS011;64877;50.994;13.650;2022-12-07T07:31:17;10.85;;;3.13;;
76131;SDS011;64877;50.994;13.650;2022-12-07T07:33:43;5.57;;;3.03;;
76131;SDS011;64877;50.994;13.650;2022-12-07T07:36:09;5.97;;;3.85;;
76131;SDS011;64877;50.994;13.650;2022-12-07T07:38:35;5.22;;;3.33;;
76131;SDS011;64877;50.994;13.650;2022-12-07T07:41:00;4.75;;;2.95;;
76131;SDS011;64877;50.994;13.650;2022-12-07T07:43:25;4.28;;;2.95;;
76131;SDS011;64877;50.994;13.650;2022-12-07T07:45:51;3.78;;;2.42;;
76131;SDS011;64877;50.994;13.650;2022-12-07T07:48:16;4.35;;;2.63;;
76131;SDS011;64877;50.994;13.650;2022-12-07T07:50:42;5.60;;;2.90;;
76131;SDS011;64877;50.994;13.650;2022-12-07T07:53:07;5.03;;;3.13;;
76131;SDS011;64877;50.994;13.650;2022-12-07T07:55:33;4.65;;;3.08;;
76131;SDS011;64877;50.994;13.650;2022-12-07T07:57:58;4.50;;;2.97;;
76131;SDS011;64877;50.994;13.650;2022-12-07T08:00:24;5.97;;;3.78;;
76131;SDS011;64877;50.994;13.650;2022-12-07T08:02:49;6.55;;;3.90;;
76131;SDS011;64877;50.994;13.650;2022-12-07T08:05:15;6.60;;;4.10;;
76131;SDS011;64877;50.994;13.650;2022-12-07T08:07:40;6.60;;;3.67;;
76131;SDS011;64877;50.994;13.650;2022-12-07T08:10:07;6.40;;;3.97;;
76131;SDS011;64877;50.994;13.650;2022-12-07T08:12:36;6.95;;;5.13;;
76131;SDS011;64877;50.994;13.650;2022-12-07T08:15:02;9.80;;;5.90;;
76131;SDS011;64877;50.994;13.650;2022-12-07T08:17:28;10.05;;;6.32;;
76131;SDS011;64877;50.994;13.650;2022-12-07T08:19:53;8.15;;;5.55;;
76131;SDS011;64877;50.994;13.650;2022-12-07T08:22:19;8.75;;;6.30;;
76131;SDS011;64877;50.994;13.650;2022-12-07T08:24:44;9.50;;;6.72;;
76131;SDS011;64877;50.994;13.650;2022-12-07T08:27:10;8.77;;;5.80;;
76131;SDS011;64877;50.994;13.650;2022-12-07T08:29:35;9.40;;;5.72;;
76131;SDS011;64877;50.994;13.650;2022-12-07T08:32:00;9.80;;;5.78;;
76131;SDS011;64877;50.994;13.650;2022-12-07T08:34:26;10.82;;;7.07;;
76131;SDS011;64877;50.994;13.650;2022-12-07T08:36:52;13.57;;;8.93;;
76131;SDS011;64877;50.994;13.650;2022-12-07T08:39:17;13.82;;;7.40;;
76131;SDS011;64877;50.994;13.650;2022-12-07T08:41:42;8.77;;;5.15;;
76131;SDS011;64877;50.994;13.650;2022-12-07T08:44:08;8.57;;;5.00;;
76131;SDS011;64877;50.994;13.650;2022-12-07T08:46:37;10.23;;;4.90;;
76131;SDS011;64877;50.994;13.650;2022-12-07T08:49:13;7.50;;;4.90;;
76131;SDS011;64877;50.994;13.650;2022-12-07T08:51:43;9.88;;;5.18;;
76131;SDS011;64877;50.994;13.650;2022-12-07T08:54:10;10.85;;;5.38;;
76131;SDS011;64877;50.994;13.650;2022-12-07T08:56:39;8.77;;;5.00;;
76131;SDS011;64877;50.994;13.650;2022-12-07T08:59:05;8.30;;;5.10;;
76131;SDS011;64877;50.994;13.650;2022-12-07T09:01:32;7.60;;;4.70;;
76131;SDS011;64877;50.994;13.650;2022-12-07T09:03:57;8.98;;;5.10;;
76131;SDS011;64877;50.994;13.650;2022-12-07T09:06:23;7.50;;;4.90;;
76131;SDS011;64877;50.994;13.650;2022-12-07T09:08:49;5.85;;;4.05;;
76131;SDS011;64877;50.994;13.650;2022-12-07T09:11:20;6.88;;;4.40;;
76131;SDS011;64877;50.994;13.650;2022-12-07T09:13:45;7.18;;;4.22;;
76131;SDS011;64877;50.994;13.650;2022-12-07T09:16:10;8.43;;;4.40;;
76131;SDS011;64877;50.994;13.650;2022-12-07T09:18:36;9.90;;;4.90;;
76131;SDS011;64877;50.994;13.650;2022-12-07T09:21:03;11.73;;;6.47;;
76131;SDS011;64877;50.994;13.650;2022-12-07T09:23:28;9.68;;;5.55;;
76131;SDS011;64877;50.994;13.650;2022-12-07T09:25:54;8.27;;;4.47;;
76131;SDS011;64877;50.994;13.650;2022-12-07T09:28:19;7.45;;;4.00;;
76131;SDS011;64877;50.994;13.650;2022-12-07T09:30:45;9.35;;;4.78;;
76131;SDS011;64877;50.994;13.650;2022-12-07T09:33:12;6.80;;;4.13;;
76131;SDS011;64877;50.994;13.650;2022-12-07T09:35:37;7.95;;;4.20;;
76131;SDS011;64877;50.994;13.650;2022-12-07T09:38:02;8.10;;;3.90;;
76131;SDS011;64877;50.994;13.650;2022-12-07T09:40:28;8.82;;;3.88;;
76131;SDS011;64877;50.994;13.650;2022-12-07T09:42:53;6.07;;;3.50;;
76131;SDS011;64877;50.994;13.650;2022-12-07T09:45:24;7.85;;;4.55;;
76131;SDS011;64877;50.994;13.650;2022-12-07T09:47:55;14.55;;;4.35;;
76131;SDS011;64877;50.994;13.650;2022-12-07T09:50:21;7.20;;;3.83;;
76131;SDS011;64877;50.994;13.650;2022-12-07T09:52:49;6.68;;;3.53;;
76131;SDS011;64877;50.994;13.650;2022-12-07T09:55:18;8.20;;;4.15;;
76131;SDS011;64877;50.994;13.650;2022-12-07T09:57:47;6.28;;;3.58;;
76131;SDS011;64877;50.994;13.650;2022-12-07T10:00:14;9.68;;;4.18;;
76131;SDS011;64877;50.994;13.650;2022-12-07T10:02:43;6.05;;;3.55;;
76131;SDS011;64877;50.994;13.650;2022-12-07T10:05:13;9.88;;;4.10;;
76131;SDS011;64877;50.994;13.650;2022-12-07T10:07:41;6.47;;;3.22;;
76131;SDS011;64877;50.994;13.650;2022-12-07T10:10:23;4.65;;;3.08;;
76131;SDS011;64877;50.994;13.650;2022-12-07T10:12:59;9.18;;;3.97;;
76131;SDS011;64877;50.994;13.650;2022-12-07T10:15:40;9.15;;;4.03;;
76131;SDS011;64877;50.994;13.650;2022-12-07T10:23:32;9.25;;;3.60;;
76131;SDS011;64877;50.994;13.650;2022-12-07T10:25:58;6.78;;;3.20;;
76131;SDS011;64877;50.994;13.650;2022-12-07T10:28:27;7.80;;;3.72;;
76131;SDS011;64877;50.994;13.650;2022-12-07T10:31:01;6.70;;;3.95;;
76131;SDS011;64877;50.994;13.650;2022-12-07T10:33:44;8.00;;;4.25;;
76131;SDS011;64877;50.994;13.650;2022-12-07T10:36:19;5.55;;;3.47;;
76131;SDS011;64877;50.994;13.650;2022-12-07T10:38:49;6.40;;;3.58;;
76131;SDS011;64877;50.994;13.650;2022-12-07T10:41:23;9.52;;;4.18;;
76131;SDS011;64877;50.994;13.650;2022-12-07T10:43:49;7.97;;;3.47;;
76131;SDS011;64877;50.994;13.650;2022-12-07T10:49:29;7.40;;;4.10;;
76131;SDS011;64877;50.994;13.650;2022-12-07T10:54:44;7.88;;;3.70;;
76131;SDS011;64877;50.994;13.650;2022-12-07T11:14:20;11.68;;;4.57;;
76131;SDS011;64877;50.994;13.650;2022-12-07T11:18:09;9.30;;;4.25;;
76131;SDS011;64877;50.994;13.650;2022-12-07T11:23:21;9.00;;;3.85;;
76131;SDS011;64877;50.994;13.650;2022-12-07T11:26:12;9.80;;;3.65;;
76131;SDS011;64877;50.994;13.650;2022-12-07T11:33:53;10.65;;;4.00;;
76131;SDS011;64877;50.994;13.650;2022-12-07T11:36:39;8.45;;;4.18;;
76131;SDS011;64877;50.994;13.650;2022-12-07T11:42:00;6.95;;;3.90;;
76131;SDS011;64877;50.994;13.650;2022-12-07T11:44:38;6.40;;;3.38;;
76131;SDS011;64877;50.994;13.650;2022-12-07T11:47:20;7.50;;;3.80;;
76131;SDS011;64877;50.994;13.650;2022-12-07T11:50:54;8.88;;;3.72;;
76131;SDS011;64877;50.994;13.650;2022-12-07T12:03:51;11.85;;;4.47;;
76131;SDS011;64877;50.994;13.650;2022-12-07T12:06:21;7.78;;;3.97;;
76131;SDS011;64877;50.994;13.650;2022-12-07T12:11:26;10.60;;;3.65;;
76131;SDS011;64877;50.994;13.650;2022-12-07T12:19:45;8.67;;;3.90;;
76131;SDS011;64877;50.994;13.650;2022-12-07T12:22:27;8.02;;;3.75;;
76131;SDS011;64877;50.994;13.650;2022-12-07T12:24:59;6.07;;;3.10;;
76131;SDS011;64877;50.994;13.650;2022-12-07T12:27:30;6.20;;;3.78;;
76131;SDS011;64877;50.994;13.650;2022-12-07T12:30:00;6.63;;;3.22;;
76131;SDS011;64877;50.994;13.650;2022-12-07T12:32:34;9.60;;;4.13;;
76131;SDS011;64877;50.994;13.650;2022-12-07T12:37:48;7.20;;;3.45;;
76131;SDS011;64877;50.994;13.650;2022-12-07T12:45:20;5.78;;;2.40;;
76131;SDS011;64877;50.994;13.650;2022-12-07T12:47:55;6.22;;;2.13;;
76131;SDS011;64877;50.994;13.650;2022-12-07T12:50:33;6.40;;;2.60;;
76131;SDS011;64877;50.994;13.650;2022-12-07T12:55:56;7.47;;;3.42;;
76131;SDS011;64877;50.994;13.650;2022-12-07T12:58:37;6.50;;;2.40;;
76131;SDS011;64877;50.994;13.650;2022-12-07T13:04:00;5.35;;;2.75;;
76131;SDS011;64877;50.994;13.650;2022-12-07T13:08:53;5.77;;;2.70;;
76131;SDS011;64877;50.994;13.650;2022-12-07T13:17:12;7.53;;;3.45;;
76131;SDS011;64877;50.994;13.650;2022-12-07T13:19:57;10.30;;;3.20;;
76131;SDS011;64877;50.994;13.650;2022-12-07T13:22:34;6.68;;;3.30;;
76131;SDS011;64877;50.994;13.650;2022-12-07T13:25:07;7.53;;;3.55;;
76131;SDS011;64877;50.994;13.650;2022-12-07T13:27:47;8.10;;;4.60;;
76131;SDS011;64877;50.994;13.650;2022-12-07T13:30:19;7.07;;;3.83;;
76131;SDS011;64877;50.994;13.650;2022-12-07T13:33:08;5.78;;;3.20;;
76131;SDS011;64877;50.994;13.650;2022-12-07T13:35:35;8.40;;;3.72;;
76131;SDS011;64877;50.994;13.650;2022-12-07T13:38:13;8.40;;;3.80;;
76131;SDS011;64877;50.994;13.650;2022-12-07T13:40:59;6.13;;;3.45;;
76131;SDS011;64877;50.994;13.650;2022-12-07T13:43:27;7.93;;;4.50;;
76131;SDS011;64877;50.994;13.650;2022-12-07T13:45:58;7.38;;;4.32;;
76131;SDS011;64877;50.994;13.650;2022-12-07T13:48:32;13.02;;;7.07;;
76131;SDS011;64877;50.994;13.650;2022-12-07T13:51:02;11.05;;;4.60;;
76131;SDS011;64877;50.994;13.650;2022-12-07T13:53:29;6.05;;;2.70;;
76131;SDS011;64877;50.994;13.650;2022-12-07T13:55:58;5.40;;;2.47;;
76131;SDS011;64877;50.994;13.650;2022-12-07T13:58:25;6.85;;;2.50;;
76131;SDS011;64877;50.994;13.650;2022-12-07T14:00:54;5.80;;;2.53;;
76131;SDS011;64877;50.994;13.650;2022-12-07T14:03:28;6.43;;;2.95;;
76131;SDS011;64877;50.994;13.650;2022-12-07T14:06:04;4.97;;;2.13;;
76131;SDS011;64877;50.994;13.650;2022-12-07T14:08:29;4.20;;;2.28;;
76131;SDS011;64877;50.994;13.650;2022-12-07T14:10:55;4.45;;;2.08;;
76131;SDS011;64877;50.994;13.650;2022-12-07T14:13:27;5.07;;;1.88;;
76131;SDS011;64877;50.994;13.650;2022-12-07T14:16:02;3.10;;;1.63;;
76131;SDS011;64877;50.994;13.650;2022-12-07T14:18:29;6.53;;;2.22;;
76131;SDS011;64877;50.994;13.650;2022-12-07T14:21:29;5.78;;;2.03;;
76131;SDS011;64877;50.994;13.650;2022-12-07T14:26:46;4.13;;;1.75;;
76131;SDS011;64877;50.994;13.650;2022-12-07T14:29:20;4.95;;;2.17;;
76131;SDS011;64877;50.994;13.650;2022-12-07T14:31:56;3.67;;;2.03;;
76131;SDS011;64877;50.994;13.650;2022-12-07T14:34:23;4.43;;;2.00;;
76131;SDS011;64877;50.994;13.650;2022-12-07T14:36:50;5.30;;;1.73;;
76131;SDS011;64877;50.994;13.650;2022-12-07T14:39:15;5.38;;;1.60;;
76131;SDS011;64877;50.994;13.650;2022-12-07T14:41:41;8.63;;;2.50;;
76131;SDS011;64877;50.994;13.650;2022-12-07T14:46:40;7.33;;;1.90;;
76131;SDS011;64877;50.994;13.650;2022-12-07T14:49:05;6.57;;;2.50;;
76131;SDS011;64877;50.994;13.650;2022-12-07T14:51:31;6.32;;;2.65;;
76131;SDS011;64877;50.994;13.650;2022-12-07T14:53:58;6.03;;;2.40;;
76131;SDS011;64877;50.994;13.650;2022-12-07T14:56:24;7.47;;;2.47;;
76131;SDS011;64877;50.994;13.650;2022-12-07T14:58:50;5.00;;;2.15;;
76131;SDS011;64877;50.994;13.650;2022-12-07T15:01:15;4.95;;;1.95;;
76131;SDS011;64877;50.994;13.650;2022-12-07T15:03:40;3.83;;;1.90;;
76131;SDS011;64877;50.994;13.650;2022-12-07T15:06:06;4.57;;;2.05;;
76131;SDS011;64877;50.994;13.650;2022-12-07T15:08:32;4.38;;;1.88;;
76131;SDS011;64877;50.994;13.650;2022-12-07T15:10:57;5.82;;;2.05;;
76131;SDS011;64877;50.994;13.650;2022-12-07T15:13:22;5.55;;;2.17;;
76131;SDS011;64877;50.994;13.650;2022-12-07T15:16:13;4.55;;;1.92;;
76131;SDS011;64877;50.994;13.650;2022-12-07T15:18:41;5.65;;;3.35;;
76131;SDS011;64877;50.994;13.650;2022-12-07T15:21:10;5.70;;;3.03;;
76131;SDS011;64877;50.994;13.650;2022-12-07T15:23:39;6.53;;;2.55;;
76131;SDS011;64877;50.994;13.650;2022-12-07T15:26:04;4.93;;;2.30;;
76131;SDS011;64877;50.994;13.650;2022-12-07T15:28:29;4.03;;;1.85;;
76131;SDS011;64877;50.994;13.650;2022-12-07T15:30:55;4.53;;;1.73;;
76131;SDS011;64877;50.994;13.650;2022-12-07T15:33:20;3.28;;;1.85;;
76131;SDS011;64877;50.994;13.650;2022-12-07T15:35:45;3.50;;;1.80;;
76131;SDS011;64877;50.994;13.650;2022-12-07T15:38:11;4.28;;;2.28;;
76131;SDS011;64877;50.994;13.650;2022-12-07T15:40:37;8.70;;;3.15;;
76131;SDS011;64877;50.994;13.650;2022-12-07T15:43:02;16.52;;;6.70;;
76131;SDS011;64877;50.994;13.650;2022-12-07T15:45:28;17.83;;;8.55;;
76131;SDS011;64877;50.994;13.650;2022-12-07T15:47:54;23.55;;;9.20;;
76131;SDS011;64877;50.994;13.650;2022-12-07T15:50:20;26.95;;;9.73;;
76131;SDS011;64877;50.994;13.650;2022-12-07T15:52:46;11.60;;;5.18;;
76131;SDS011;64877;50.994;13.650;2022-12-07T15:55:11;6.28;;;3.25;;
76131;SDS011;64877;50.994;13.650;2022-12-07T15:57:37;8.25;;;4.28;;
76131;SDS011;64877;50.994;13.650;2022-12-07T16:00:04;11.23;;;5.50;;
76131;SDS011;64877;50.994;13.650;2022-12-07T16:02:31;5.28;;;3.15;;
76131;SDS011;64877;50.994;13.650;2022-12-07T16:04:56;6.05;;;2.30;;
76131;SDS011;64877;50.994;13.650;2022-12-07T16:07:21;6.82;;;2.30;;
76131;SDS011;64877;50.994;13.650;2022-12-07T16:09:47;5.30;;;2.90;;
76131;SDS011;64877;50.994;13.650;2022-12-07T16:12:14;7.35;;;2.58;;
76131;SDS011;64877;50.994;13.650;2022-12-07T16:14:40;5.63;;;2.95;;
76131;SDS011;64877;50.994;13.650;2022-12-07T16:17:06;8.95;;;3.08;;
76131;SDS011;64877;50.994;13.650;2022-12-07T16:19:32;7.78;;;3.05;;
76131;SDS011;64877;50.994;13.650;2022-12-07T16:21:58;7.38;;;3.80;;
76131;SDS011;64877;50.994;13.650;2022-12-07T16:24:24;10.13;;;4.18;;
76131;SDS011;64877;50.994;13.650;2022-12-07T16:26:50;5.78;;;2.40;;
76131;SDS011;64877;50.994;13.650;2022-12-07T16:29:16;3.63;;;1.80;;
76131;SDS011;64877;50.994;13.650;2022-12-07T16:31:42;4.32;;;1.63;;
76131;SDS011;64877;50.994;13.650;2022-12-07T16:34:08;4.55;;;2.42;;